Time;durP1;ratioP1;P1;durP2;ratioP2;P2;SDS_P1;SDS_P2;PMS_P1;PMS_P2;Temp;Humidity;BMP_temperature;BMP_pressure;BME280_temperature;BME280_humidity;BME280_pressure;Samples;Min_cycle;Max_cycle;Signal;HPM_P1;HPM_P2
2021/06/24 00:02:09;;;;;;;0;0;;;;;;;18.34;83.79395;940.0173;;;;
2021/06/24 00:04:34;;;;;;;0.4;0.4;;;;;;;18.4;82.86621;940.017;;;;
2021/06/24 00:06:59;;;;;;;0.3;0.3;;;;;;;18.36;84.18262;940.0588;;;;
2021/06/24 00:09:24;;;;;;;0.1;0.1;;;;;;;18.25;84.83594;940.0704;;;;
2021/06/24 00:11:50;;;;;;;0.1;0.1;;;;;;;18.3;85.42578;940.1163;;;;
2021/06/24 00:14:15;;;;;;;0.3;0.3;;;;;;;;;;;;;
2021/06/24 00:16:41;;;;;;;0.2;0.2;;;;;;;;;;;;;
2021/06/24 00:19:06;;;;;;;0;0;;;;;;;;;;;;;
2021/06/24 00:21:31;;;;;;;0.4;0.4;;;;;;;;;;;;;
2021/06/24 00:23:56;;;;;;;0;0;;;;;;;;;;;;;
2021/06/24 00:26:22;;;;;;;0;0;;;;;;;;;;;;;
2021/06/24 00:28:47;;;;;;;0;0;;;;;;;;;;;;;
2021/06/24 00:31:12;;;;;;;0.2;0.2;;;;;;;;;;;;;
2021/06/24 00:33:38;;;;;;;0.4;0.2;;;;;;;;;;;;;
2021/06/24 00:36:03;;;;;;;0.1;0.1;;;;;;;;;;;;;
2021/06/24 00:38:28;;;;;;;0;0;;;;;;;;;;;;;
2021/06/24 00:40:53;;;;;;;0.1;0.1;;;;;;;;;;;;;
2021/06/24 00:43:18;;;;;;;0;0;;;;;;;;;;;;;
2021/06/24 00:45:43;;;;;;;0;0;;;;;;;;;;;;;
2021/06/24 00:48:08;;;;;;;0;0;;;;;;;;;;;;;
2021/06/24 00:50:33;;;;;;;0;0;;;;;;;;;;;;;
2021/06/24 00:52:58;;;;;;;0;0;;;;;;;;;;;;;
2021/06/24 00:55:40;;;;;;;0.1;0.1;;;;;;;;;;;;;
2021/06/24 00:57:48;;;;;;;0;0;;;;;;;;;;;;;
2021/06/24 01:00:13;;;;;;;0.3;0.2;;;;;;;;;;;;;
2021/06/24 01:02:39;;;;;;;0.1;0.1;;;;;;;;;;;;;
2021/06/24 01:05:04;;;;;;;0;0;;;;;;;;;;;;;
2021/06/24 01:07:29;;;;;;;0;0;;;;;;;;;;;;;
2021/06/24 01:09:55;;;;;;;0;0;;;;;;;;;;;;;
2021/06/24 01:12:19;;;;;;;0.1;0.1;;;;;;;;;;;;;
2021/06/24 01:14:44;;;;;;;0.1;0.1;;;;;;;;;;;;;
2021/06/24 01:17:09;;;;;;;0;0;;;;;;;;;;;;;
2021/06/24 01:19:34;;;;;;;0.4;0.2;;;;;;;;;;;;;
2021/06/24 01:22:00;;;;;;;0.2;0.2;;;;;;;;;;;;;
2021/06/24 01:24:25;;;;;;;0;0;;;;;;;;;;;;;
2021/06/24 01:26:52;;;;;;;0;0;;;;;;;;;;;;;
2021/06/24 01:29:17;;;;;;;0;0;;;;;;;;;;;;;
2021/06/24 01:31:42;;;;;;;0.8;0.5;;;;;;;;;;;;;
2021/06/24 01:34:07;;;;;;;0.2;0.2;;;;;;;;;;;;;
2021/06/24 01:36:32;;;;;;;0;0;;;;;;;;;;;;;
2021/06/24 01:38:57;;;;;;;0;0;;;;;;;;;;;;;
2021/06/24 01:41:22;;;;;;;0.3;0.3;;;;;;;;;;;;;
2021/06/24 01:43:47;;;;;;;0.1;0.1;;;;;;;;;;;;;
2021/06/24 01:46:13;;;;;;;0.2;0.2;;;;;;;;;;;;;
2021/06/24 01:48:39;;;;;;;0.2;0.1;;;;;;;;;;;;;
2021/06/24 01:51:03;;;;;;;0.2;0.2;;;;;;;;;;;;;
2021/06/24 01:53:28;;;;;;;0;0;;;;;;;;;;;;;
2021/06/24 01:55:54;;;;;;;0;0;;;;;;;;;;;;;
2021/06/24 01:58:21;;;;;;;0;0;;;;;;;;;;;;;
2021/06/24 02:00:46;;;;;;;0;0;;;;;;;;;;;;;
2021/06/24 02:03:11;;;;;;;0.1;0.1;;;;;;;;;;;;;
2021/06/24 02:05:38;;;;;;;0.2;0.2;;;;;;;;;;;;;
2021/06/24 02:08:03;;;;;;;0;0;;;;;;;;;;;;;
2021/06/24 02:10:30;;;;;;;0;0;;;;;;;;;;;;;
2021/06/24 02:12:55;;;;;;;0;0;;;;;;;;;;;;;
2021/06/24 02:15:21;;;;;;;0.1;0.1;;;;;;;;;;;;;
2021/06/24 02:17:46;;;;;;;0;0;;;;;;;;;;;;;
2021/06/24 02:20:12;;;;;;;0;0;;;;;;;;;;;;;
2021/06/24 02:22:37;;;;;;;0.1;0.1;;;;;;;;;;;;;
2021/06/24 02:25:02;;;;;;;0.1;0.1;;;;;;;;;;;;;
2021/06/24 02:27:27;;;;;;;0;0;;;;;;;;;;;;;
2021/06/24 02:30:11;;;;;;;0.1;0.1;;;;;;;;;;;;;
2021/06/24 02:32:36;;;;;;;0.1;0.1;;;;;;;;;;;;;
2021/06/24 02:35:01;;;;;;;0;0;;;;;;;;;;;;;
2021/06/24 02:37:27;;;;;;;0;0;;;;;;;;;;;;;
2021/06/24 02:39:52;;;;;;;0.1;0.1;;;;;;;;;;;;;
2021/06/24 02:42:18;;;;;;;0;0;;;;;;;;;;;;;
2021/06/24 02:44:43;;;;;;;0;0;;;;;;;;;;;;;
2021/06/24 02:47:08;;;;;;;0.5;0.5;;;;;;;;;;;;;
2021/06/24 02:49:33;;;;;;;0.1;0.1;;;;;;;;;;;;;
2021/06/24 02:51:58;;;;;;;0.2;0.2;;;;;;;;;;;;;
2021/06/24 02:54:24;;;;;;;0.1;0.1;;;;;;;;;;;;;
2021/06/24 02:56:49;;;;;;;0.1;0.1;;;;;;;;;;;;;
2021/06/24 02:59:14;;;;;;;0.2;0.2;;;;;;;;;;;;;
2021/06/24 03:01:40;;;;;;;0.1;0.1;;;;;;;;;;;;;
2021/06/24 03:04:04;;;;;;;0.4;0.2;;;;;;;;;;;;;
2021/06/24 03:06:30;;;;;;;0.2;0.2;;;;;;;;;;;;;
2021/06/24 03:08:55;;;;;;;0.2;0.2;;;;;;;;;;;;;
2021/06/24 03:11:20;;;;;;;0.1;0.1;;;;;;;;;;;;;
2021/06/24 03:13:47;;;;;;;0.4;0.4;;;;;;;;;;;;;
2021/06/24 03:16:12;;;;;;;0.1;0.1;;;;;;;;;;;;;
2021/06/24 03:18:37;;;;;;;0.3;0.3;;;;;;;;;;;;;
2021/06/24 03:21:02;;;;;;;0.6;0.5;;;;;;;;;;;;;
2021/06/24 03:23:27;;;;;;;0.2;0.2;;;;;;;;;;;;;
2021/06/24 03:25:55;;;;;;;0.2;0.2;;;;;;;;;;;;;
2021/06/24 03:28:17;;;;;;;0.4;0.4;;;;;;;;;;;;;
2021/06/24 03:30:42;;;;;;;0.3;0.3;;;;;;;;;;;;;
2021/06/24 03:33:08;;;;;;;0;0;;;;;;;;;;;;;
2021/06/24 03:35:36;;;;;;;0.3;0.3;;;;;;;;;;;;;
2021/06/24 03:38:01;;;;;;;0;0;;;;;;;;;;;;;
2021/06/24 03:40:26;;;;;;;1.1;0.4;;;;;;;;;;;;;
2021/06/24 03:42:52;;;;;;;0.4;0.4;;;;;;;;;;;;;
2021/06/24 03:45:17;;;;;;;0;0;;;;;;;;;;;;;
2021/06/24 03:47:43;;;;;;;0.2;0.2;;;;;;;;;;;;;
2021/06/24 03:50:08;;;;;;;0.2;0.2;;;;;;;;;;;;;
2021/06/24 03:52:33;;;;;;;0;0;;;;;;;;;;;;;
2021/06/24 03:54:58;;;;;;;0.1;0.1;;;;;;;;;;;;;
2021/06/24 03:57:24;;;;;;;0.4;0.4;;;;;;;;;;;;;
2021/06/24 03:59:49;;;;;;;0.1;0.1;;;;;;;;;;;;;
2021/06/24 04:02:30;;;;;;;0.4;0.4;;;;;;;15.77;92.34277;939.1533;;;;
2021/06/24 04:04:55;;;;;;;0.1;0.1;;;;;;;15.69;91.84082;939.1644;;;;
2021/06/24 04:07:20;;;;;;;0.2;0.2;;;;;;;15.76;91.32422;939.122;;;;
2021/06/24 04:09:45;;;;;;;0.1;0.1;;;;;;;15.73;91.35156;939.0958;;;;
2021/06/24 04:12:11;;;;;;;0.2;0.2;;;;;;;15.5;92.60938;939.1141;;;;
2021/06/24 04:14:36;;;;;;;0.7;0.4;;;;;;;15.4;92.78418;939.06;;;;
2021/06/24 04:17:01;;;;;;;0.2;0.2;;;;;;;15.23;93.56738;939.0533;;;;
2021/06/24 04:19:27;;;;;;;0.2;0.2;;;;;;;15.18;93.88086;938.9747;;;;
2021/06/24 04:21:52;;;;;;;1.5;0.7;;;;;;;15.3;93.46777;939.0359;;;;
2021/06/24 04:24:19;;;;;;;0.3;0.3;;;;;;;15.5;92.40137;938.9984;;;;
2021/06/24 04:26:44;;;;;;;0.1;0.1;;;;;;;15.28;93.31348;939.0176;;;;
2021/06/24 04:29:10;;;;;;;0.8;0.4;;;;;;;15.2;93.19043;939.0283;;;;
2021/06/24 04:31:35;;;;;;;0;0;;;;;;;15.22;93.58887;938.9691;;;;
2021/06/24 04:34:01;;;;;;;0.2;0.2;;;;;;;15.19;93.25977;938.9225;;;;
2021/06/24 04:36:26;;;;;;;0.1;0.1;;;;;;;15.5;92.83984;938.9576;;;;
2021/06/24 04:38:52;;;;;;;0;0;;;;;;;15.63;91.20313;938.9434;;;;
2021/06/24 04:41:17;;;;;;;0.5;0.5;;;;;;;15.84;90.53027;938.9539;;;;
2021/06/24 04:43:42;;;;;;;1.9;0.9;;;;;;;16.09;89.34473;938.9443;;;;
2021/06/24 04:46:08;;;;;;;0.3;0.3;;;;;;;16.11;87.98535;938.8998;;;;
2021/06/24 04:48:34;;;;;;;0.4;0.3;;;;;;;15.94;88.14648;938.9119;;;;
2021/06/24 04:51:00;;;;;;;0;0;;;;;;;15.89;88.70313;938.8369;;;;
2021/06/24 04:53:25;;;;;;;0.2;0.2;;;;;;;15.82;89.12793;938.8344;;;;
2021/06/24 04:55:51;;;;;;;0.1;0.1;;;;;;;15.76;89.2998;938.9157;;;;
2021/06/24 04:58:16;;;;;;;0.1;0.1;;;;;;;15.7;89.78613;938.8713;;;;
2021/06/24 05:00:43;;;;;;;0.1;0.1;;;;;;;15.7;89.92578;938.8159;;;;
2021/06/24 05:03:10;;;;;;;0.1;0.1;;;;;;;15.76;90.0293;938.7897;;;;
2021/06/24 05:05:34;;;;;;;0.2;0.2;;;;;;;16.85;86.73242;938.8264;;;;
2021/06/24 05:08:00;;;;;;;0.3;0.3;;;;;;;17.5;80.48047;938.7642;;;;
2021/06/24 05:10:24;;;;;;;0;0;;;;;;;18;78.75781;938.759;;;;
2021/06/24 05:12:50;;;;;;;0.2;0.2;;;;;;;19.32;73.52051;938.7377;;;;
2021/06/24 05:15:19;;;;;;;0.2;0.2;;;;;;;19.73;71.33789;938.6761;;;;
2021/06/24 05:17:45;;;;;;;0.2;0.2;;;;;;;20.81;67.13086;938.6289;;;;
2021/06/24 05:20:10;;;;;;;0;0;;;;;;;20.99;65.46094;938.6322;;;;
2021/06/24 05:22:37;;;;;;;0.1;0.1;;;;;;;21.32;65.20605;938.6097;;;;
2021/06/24 05:25:02;;;;;;;0.1;0.1;;;;;;;22.21;62.29883;938.598;;;;
2021/06/24 05:27:29;;;;;;;0.6;0.4;;;;;;;23.05;60.06836;938.6169;;;;
2021/06/24 05:29:54;;;;;;;0;0;;;;;;;23.19;57.64258;938.5719;;;;
2021/06/24 05:32:20;;;;;;;0.2;0.2;;;;;;;23.12;56.85645;938.6453;;;;
2021/06/24 05:34:45;;;;;;;0.1;0.1;;;;;;;22.75;58.2793;938.5753;;;;
2021/06/24 05:37:12;;;;;;;0;0;;;;;;;23.4;57.0459;938.5817;;;;
2021/06/24 05:39:37;;;;;;;0.2;0.2;;;;;;;22.87;58.21094;938.4789;;;;
2021/06/24 05:42:02;;;;;;;0.3;0.2;;;;;;;23.01;59.83887;938.4939;;;;
2021/06/24 05:44:27;;;;;;;0.1;0.1;;;;;;;24.94;54.10547;938.5058;;;;
2021/06/24 05:46:54;;;;;;;0;0;;;;;;;25.97;51.54492;938.4756;;;;
2021/06/24 05:49:19;;;;;;;0.3;0.3;;;;;;;27.26;46.87891;938.522;;;;
2021/06/24 05:51:46;;;;;;;0.1;0.1;;;;;;;27.04;48.18359;938.4902;;;;
2021/06/24 05:54:11;;;;;;;0.1;0.1;;;;;;;26.6;48.70508;938.4955;;;;
2021/06/24 05:56:36;;;;;;;0;0;;;;;;;26.94;49.13281;938.4633;;;;
2021/06/24 05:59:03;;;;;;;0;0;;;;;;;26.83;48.56445;938.3733;;;;
2021/06/24 06:01:28;;;;;;;0.1;0.1;;;;;;;27.7;45.39355;938.4529;;;;
2021/06/24 06:03:53;;;;;;;0.1;0.1;;;;;;;27.87;46.85938;938.4323;;;;
2021/06/24 06:06:20;;;;;;;0.1;0.1;;;;;;;28.42;44.93066;938.3538;;;;
2021/06/24 06:08:44;;;;;;;0.4;0.3;;;;;;;28.77;43.93164;938.3583;;;;
2021/06/24 06:11:11;;;;;;;0.1;0.1;;;;;;;29.74;44.12109;938.3778;;;;
2021/06/24 06:13:36;;;;;;;0;0;;;;;;;29.68;42.32617;938.3292;;;;
2021/06/24 06:16:05;;;;;;;0;0;;;;;;;30.74;39.7002;938.3475;;;;
2021/06/24 06:18:30;;;;;;;0.2;0.2;;;;;;;30.57;40.28418;938.2681;;;;
2021/06/24 06:20:55;;;;;;;0.2;0.2;;;;;;;30.68;38.40527;938.3014;;;;
2021/06/24 06:23:20;;;;;;;0.1;0.1;;;;;;;29.62;40.81934;938.2236;;;;
2021/06/24 06:25:46;;;;;;;0.1;0.1;;;;;;;30.47;40.33496;938.279;;;;
2021/06/24 06:28:11;;;;;;;0.1;0.1;;;;;;;31.03;38.54297;938.3342;;;;
2021/06/24 06:30:36;;;;;;;0.1;0.1;;;;;;;30.08;40.53809;938.3326;;;;
2021/06/24 06:33:02;;;;;;;0.1;0.1;;;;;;;30.29;38.92188;938.3608;;;;
2021/06/24 06:35:26;;;;;;;0.4;0.1;;;;;;;28.13;43.46484;938.3706;;;;
2021/06/24 06:37:52;;;;;;;0.1;0.1;;;;;;;29.32;42.17383;938.3046;;;;
2021/06/24 06:40:17;;;;;;;0.3;0.3;;;;;;;30.21;39.17676;938.3173;;;;
2021/06/24 06:42:44;;;;;;;0.2;0.2;;;;;;;30.07;40.07227;938.2525;;;;
2021/06/24 06:45:09;;;;;;;0.2;0.2;;;;;;;27.98;44.02051;938.265;;;;
2021/06/24 06:47:35;;;;;;;2.7;0.8;;;;;;;29.05;46.42383;938.2031;;;;
2021/06/24 06:53:11;;;;;;;0.2;0.2;;;;;;;29.99;40.70996;938.1262;;;;
2021/06/24 06:55:36;;;;;;;0;0;;;;;;;28.49;43.79688;938.1479;;;;
2021/06/24 06:58:01;;;;;;;0.1;0.1;;;;;;;29.22;42.23633;938.1644;;;;
2021/06/24 07:00:28;;;;;;;0.2;0.2;;;;;;;29.76;42.02441;938.1827;;;;
2021/06/24 07:02:51;;;;;;;0.2;0.2;;;;;;;30.19;40.62109;938.1616;;;;
2021/06/24 07:05:18;;;;;;;0.3;0.2;;;;;;;30.87;39.37793;938.1814;;;;
2021/06/24 07:07:43;;;;;;;0.5;0.5;;;;;;;32.15;38.00195;938.0773;;;;
2021/06/24 07:10:10;;;;;;;0.1;0.1;;;;;;;31.74;39.83691;938.0945;;;;
2021/06/24 07:12:35;;;;;;;0.1;0.1;;;;;;;31.65;39.7207;938.1266;;;;
2021/06/24 07:15:00;;;;;;;0.1;0.1;;;;;;;31.89;38.96289;938.1092;;;;
2021/06/24 07:19:50;;;;;;;0.2;0.2;;;;;;;33.58;34.59863;938.0667;;;;
2021/06/24 07:22:15;;;;;;;0.3;0.3;;;;;;;33.4;34.14063;938.087;;;;
2021/06/24 07:24:40;;;;;;;0.2;0.2;;;;;;;32.9;37.16504;938.1312;;;;
2021/06/24 07:27:06;;;;;;;2.8;0.6;;;;;;;32.69;36.89551;938.0063;;;;
2021/06/24 07:29:31;;;;;;;0.2;0.2;;;;;;;32.34;36.67578;938.0333;;;;
2021/06/24 07:31:57;;;;;;;0.2;0.2;;;;;;;32.55;35.0127;938.0637;;;;
2021/06/24 07:34:22;;;;;;;0.2;0.2;;;;;;;32.21;35.77832;938.0477;;;;
2021/06/24 07:36:48;;;;;;;0.1;0.1;;;;;;;33.27;34.52734;938.0262;;;;
2021/06/24 07:39:12;;;;;;;1.8;0.7;;;;;;;34.58;30.46875;938.0931;;;;
2021/06/24 07:41:37;;;;;;;0.1;0.1;;;;;;;33.79;34.9873;938.0744;;;;
2021/06/24 07:44:04;;;;;;;0.2;0.2;;;;;;;34.84;31.07715;938.0463;;;;
2021/06/24 07:46:29;;;;;;;0.1;0.1;;;;;;;34.5;31.47559;938.0598;;;;
2021/06/24 07:48:55;;;;;;;0.2;0.2;;;;;;;31.33;38.83105;938.1509;;;;
2021/06/24 07:51:20;;;;;;;0.1;0.1;;;;;;;29.8;38.77246;938.0264;;;;
2021/06/24 07:53:45;;;;;;;0.1;0.1;;;;;;;29.46;41.6748;937.9824;;;;
2021/06/24 07:56:10;;;;;;;0.2;0.2;;;;;;;29.01;41.33496;937.9358;;;;
2021/06/24 07:58:37;;;;;;;0.1;0.1;;;;;;;30.25;40.60059;937.978;;;;
2021/06/24 08:01:02;;;;;;;0.1;0.1;;;;;;;31.75;36.80762;937.9564;;;;
2021/06/24 08:03:28;;;;;;;0.1;0.1;;;;;;;31.68;35.84375;937.9906;;;;
2021/06/24 08:05:53;;;;;;;0.2;0.2;;;;;;;32.88;35.33789;937.9927;;;;
2021/06/24 08:08:19;;;;;;;0.1;0.1;;;;;;;31.77;36.46191;937.9984;;;;
2021/06/24 08:10:44;;;;;;;0.2;0.2;;;;;;;33.26;34.38184;937.9561;;;;
2021/06/24 08:13:10;;;;;;;0.1;0.1;;;;;;;33.85;33.46387;938.0056;;;;
2021/06/24 08:15:39;;;;;;;0.1;0.1;;;;;;;31.92;38.15039;937.9953;;;;
2021/06/24 08:18:05;;;;;;;0.2;0.2;;;;;;;33.28;35.28516;937.94;;;;
2021/06/24 08:20:30;;;;;;;0.2;0.2;;;;;;;32.83;34.63867;937.9031;;;;
2021/06/24 08:22:57;;;;;;;0.2;0.2;;;;;;;33.45;33.8916;937.9267;;;;
2021/06/24 08:25:22;;;;;;;0.1;0.1;;;;;;;35.01;31.87207;937.9651;;;;
2021/06/24 08:27:49;;;;;;;0.4;0.4;;;;;;;34.11;33.59082;937.965;;;;
2021/06/24 08:30:13;;;;;;;0.2;0.2;;;;;;;33.8;34.09863;937.9084;;;;
2021/06/24 08:32:38;;;;;;;0.1;0.1;;;;;;;32.26;37.24414;937.9153;;;;
2021/06/24 08:35:04;;;;;;;0.1;0.1;;;;;;;32.46;36.27734;937.8717;;;;
2021/06/24 08:37:29;;;;;;;0.1;0.1;;;;;;;32.97;34.88867;937.8392;;;;
2021/06/24 08:39:56;;;;;;;0.2;0.2;;;;;;;31.28;37.33203;937.7789;;;;
2021/06/24 08:42:21;;;;;;;0.1;0.1;;;;;;;30.19;38.3291;937.7787;;;;
2021/06/24 08:44:46;;;;;;;0.7;0.3;;;;;;;31.18;36.30664;937.7744;;;;
2021/06/24 08:47:12;;;;;;;0.2;0.2;;;;;;;31.89;36.91406;937.6951;;;;
2021/06/24 08:49:37;;;;;;;0.1;0.1;;;;;;;29.23;40.06836;937.6384;;;;
2021/06/24 08:52:02;;;;;;;0.1;0.1;;;;;;;28.79;43.63574;937.5908;;;;
2021/06/24 08:54:27;;;;;;;0.4;0.4;;;;;;;28.45;45.66016;937.5759;;;;
2021/06/24 08:56:53;;;;;;;0.1;0.1;;;;;;;28.97;42.8916;937.5389;;;;
2021/06/24 08:59:17;;;;;;;0.3;0.3;;;;;;;30.02;43.48047;937.5148;;;;
2021/06/24 09:01:43;;;;;;;0.1;0.1;;;;;;;28.47;45.3877;937.4969;;;;
2021/06/24 09:04:10;;;;;;;0;0;;;;;;;28.05;47.36523;937.5284;;;;
2021/06/24 09:06:35;;;;;;;0.6;0.6;;;;;;;27.28;47.7002;937.4509;;;;
2021/06/24 09:09:03;;;;;;;0.1;0.1;;;;;;;27.08;48.36523;937.5458;;;;
2021/06/24 09:11:28;;;;;;;1.6;0.2;;;;;;;26.67;49.77832;937.5649;;;;
2021/06/24 09:13:55;;;;;;;0.1;0.1;;;;;;;27.35;48.37109;937.5505;;;;
2021/06/24 09:16:26;;;;;;;0.3;0.3;;;;;;;28.3;45.47754;937.4777;;;;
2021/06/24 09:18:52;;;;;;;0.1;0.1;;;;;;;27.81;47.26855;937.4903;;;;
2021/06/24 09:21:17;;;;;;;0.3;0.2;;;;;;;28.35;44.13965;937.4625;;;;
2021/06/24 09:23:44;;;;;;;0.1;0.1;;;;;;;29.67;41.83691;937.4615;;;;
2021/06/24 09:26:11;;;;;;;0.1;0.1;;;;;;;29.95;40.76465;937.5098;;;;
2021/06/24 09:28:38;;;;;;;0.1;0.1;;;;;;;28.71;46.54297;937.5366;;;;
2021/06/24 09:31:02;;;;;;;0.1;0.1;;;;;;;28.69;45.74316;937.5365;;;;
2021/06/24 09:33:28;;;;;;;0.3;0.2;;;;;;;29.53;44.18457;937.5414;;;;
2021/06/24 09:35:53;;;;;;;0.2;0.2;;;;;;;29.55;44.47168;937.4836;;;;
2021/06/24 09:38:20;;;;;;;0.1;0.1;;;;;;;29.63;44.24121;937.5147;;;;
2021/06/24 09:40:45;;;;;;;0.3;0.3;;;;;;;27.04;52.34473;937.5215;;;;
2021/06/24 09:43:10;;;;;;;0.1;0.1;;;;;;;27.51;50.58398;937.5611;;;;
2021/06/24 09:45:38;;;;;;;0.4;0.4;;;;;;;26.54;53.49414;937.5797;;;;
2021/06/24 09:48:03;;;;;;;0.2;0.2;;;;;;;26.79;50.57324;937.5942;;;;
2021/06/24 09:50:30;;;;;;;0.2;0.2;;;;;;;27.02;51.91406;937.5947;;;;
2021/06/24 09:52:55;;;;;;;0.2;0.2;;;;;;;27.07;51.7793;937.5369;;;;
2021/06/24 09:55:21;;;;;;;0.1;0.1;;;;;;;26.67;53.5918;937.5405;;;;
2021/06/24 09:57:51;;;;;;;0.4;0.4;;;;;;;26.74;53.3877;937.5706;;;;
2021/06/24 10:00:14;;;;;;;0.1;0.1;;;;;;;26.74;54.54688;937.5513;;;;
2021/06/24 10:02:42;;;;;;;0.1;0.1;;;;;;;25.94;56.75781;937.5854;;;;
2021/06/24 10:05:07;;;;;;;0;0;;;;;;;25.71;58.83008;937.5938;;;;
2021/06/24 10:07:35;;;;;;;0.1;0.1;;;;;;;26.04;55.63477;937.5828;;;;
2021/06/24 10:10:00;;;;;;;0;0;;;;;;;26.67;53.94727;937.5345;;;;
2021/06/24 10:12:33;;;;;;;0.2;0.2;;;;;;;26.78;54.87402;937.5513;;;;
2021/06/24 10:15:02;;;;;;;0.3;0.3;;;;;;;26.81;53.36035;937.5079;;;;
2021/06/24 10:17:36;;;;;;;0.4;0.2;;;;;;;26.91;54.19043;937.493;;;;
2021/06/24 10:20:01;;;;;;;0.9;0.4;;;;;;;26.68;56.49512;937.516;;;;
2021/06/24 10:22:33;;;;;;;0.2;0.2;;;;;;;25.84;56.09375;937.5195;;;;
2021/06/24 10:24:59;;;;;;;0.1;0.1;;;;;;;25.26;56.77734;937.5184;;;;
2021/06/24 10:27:30;;;;;;;0;0;;;;;;;25.09;56.23633;937.476;;;;
2021/06/24 10:29:58;;;;;;;0.2;0.2;;;;;;;24.88;56.92773;937.5703;;;;
2021/06/24 10:32:24;;;;;;;0.6;0.2;;;;;;;24.04;60.18945;937.509;;;;
2021/06/24 10:34:52;;;;;;;0;0;;;;;;;24.26;59.53613;937.567;;;;
2021/06/24 10:37:21;;;;;;;0.1;0.1;;;;;;;24.08;61.71484;937.5748;;;;
2021/06/24 10:39:49;;;;;;;0.1;0.1;;;;;;;24.31;58.92871;937.5427;;;;
2021/06/24 10:42:15;;;;;;;0.2;0.2;;;;;;;24.44;58.89941;937.543;;;;
2021/06/24 10:44:42;;;;;;;1.8;0.5;;;;;;;24.23;59.17871;937.58;;;;
2021/06/24 10:47:08;;;;;;;0.2;0.2;;;;;;;24.24;59.54492;937.6747;;;;
2021/06/24 10:49:33;;;;;;;0.2;0.2;;;;;;;24.46;59.32617;937.6941;;;;
2021/06/24 10:52:01;;;;;;;0;0;;;;;;;24.96;57.89453;937.7245;;;;
2021/06/24 10:54:29;;;;;;;0.4;0.3;;;;;;;25.2;58.20898;937.6453;;;;
2021/06/24 10:56:54;;;;;;;1.3;0.6;;;;;;;25.53;57.42578;937.707;;;;
2021/06/24 10:59:21;;;;;;;0.2;0.2;;;;;;;25.63;57.10742;937.7539;;;;
2021/06/24 11:01:46;;;;;;;0.3;0.3;;;;;;;25.46;59.89648;937.8075;;;;
2021/06/24 11:04:13;;;;;;;0.4;0.4;;;;;;;25.3;58.41211;937.7399;;;;
2021/06/24 11:06:40;;;;;;;0.1;0.1;;;;;;;24.3;61.2373;937.6986;;;;
2021/06/24 11:09:05;;;;;;;2.6;0.7;;;;;;;23.74;62.05566;937.6498;;;;
2021/06/24 11:11:30;;;;;;;0.3;0.3;;;;;;;23.59;65.43359;937.7008;;;;
2021/06/24 11:13:58;;;;;;;0.3;0.3;;;;;;;23.72;66.39453;937.7695;;;;
2021/06/24 11:16:28;;;;;;;2.9;0.8;;;;;;;24.08;66.01172;937.7825;;;;
2021/06/24 11:18:55;;;;;;;0;0;;;;;;;23.72;63.67578;937.8689;;;;
2021/06/24 11:21:22;;;;;;;0.4;0.4;;;;;;;23.53;63.86035;937.8312;;;;
2021/06/24 11:23:48;;;;;;;0;0;;;;;;;23.59;61.63477;937.8147;;;;
2021/06/24 11:26:18;;;;;;;0.2;0.1;;;;;;;23.62;61.30859;937.8013;;;;
2021/06/24 11:28:45;;;;;;;0.4;0.4;;;;;;;23.61;60.97656;937.8748;;;;
2021/06/24 11:31:13;;;;;;;0.2;0.2;;;;;;;24.04;58.56348;937.8591;;;;
2021/06/24 11:33:43;;;;;;;0.5;0.4;;;;;;;23.53;61.34375;937.9128;;;;
2021/06/24 11:36:09;;;;;;;0.1;0.1;;;;;;;22.4;64.10938;937.9216;;;;
2021/06/24 11:38:27;;;;;;;0.2;0.1;;;;;;;21.98;65.13867;937.9703;;;;
2021/06/24 11:40:58;;;;;;;0.1;0.1;;;;;;;22.17;65.91699;938.1273;;;;
2021/06/24 11:43:24;;;;;;;0.2;0.2;;;;;;;22.33;65.2832;938.1138;;;;
2021/06/24 11:45:50;;;;;;;0.3;0.3;;;;;;;22.54;63.4834;938.199;;;;
2021/06/24 11:48:17;;;;;;;0.2;0.2;;;;;;;22.9;62.63086;938.2594;;;;
2021/06/24 12:00:35;;;;;;;0;0;;;;;;;22.21;66.14551;938.2817;;;;
2021/06/24 12:03:07;;;;;;;0;0;;;;;;;22.06;66.28613;938.2222;;;;
2021/06/24 12:05:23;;;;;;;3.7;0.5;;;;;;;22.03;66.04785;938.2958;;;;
2021/06/24 12:07:48;;;;;;;0.5;0.3;;;;;;;22.37;65.67578;938.2764;;;;
2021/06/24 12:10:18;;;;;;;0.6;0.4;;;;;;;22.65;63.75781;938.2325;;;;
2021/06/24 12:12:43;;;;;;;0.2;0.2;;;;;;;22.63;65.14063;938.2388;;;;
2021/06/24 12:15:12;;;;;;;0.2;0.2;;;;;;;22.64;64.51953;938.1841;;;;
2021/06/24 12:17:41;;;;;;;0;0;;;;;;;22.86;64.44531;938.2015;;;;
2021/06/24 12:20:09;;;;;;;0.1;0.1;;;;;;;22.89;65.00293;938.0745;;;;
2021/06/24 12:22:35;;;;;;;1;0.5;;;;;;;23.02;64.51563;938.1345;;;;
2021/06/24 12:25:00;;;;;;;0.1;0.1;;;;;;;23.39;63.5;938.2676;;;;
2021/06/24 12:27:26;;;;;;;0.2;0.2;;;;;;;23.35;62.87012;938.262;;;;
2021/06/24 12:29:55;;;;;;;0;0;;;;;;;23.17;63.79688;938.1639;;;;
2021/06/24 12:32:20;;;;;;;0;0;;;;;;;23.01;64.25488;938.14;;;;
2021/06/24 12:34:46;;;;;;;0.2;0.2;;;;;;;23;64.96973;938.1339;;;;
2021/06/24 12:37:11;;;;;;;0.1;0.1;;;;;;;23.53;63.79004;938.0914;;;;
2021/06/24 12:39:40;;;;;;;0.3;0.2;;;;;;;23.65;63.99609;938.079;;;;
2021/06/24 12:42:05;;;;;;;0;0;;;;;;;23.87;62.73145;938.0289;;;;
2021/06/24 12:44:33;;;;;;;0.2;0.2;;;;;;;23.64;62.46582;938.0314;;;;
2021/06/24 12:46:59;;;;;;;0.1;0.1;;;;;;;23.43;63.55371;938.0313;;;;
2021/06/24 12:49:24;;;;;;;0.1;0.1;;;;;;;23.36;63.22559;938.1321;;;;
2021/06/24 12:51:49;;;;;;;0;0;;;;;;;23.5;62.58594;938.0895;;;;
2021/06/24 12:54:16;;;;;;;0.3;0.3;;;;;;;23.74;62.64355;938.0549;;;;
2021/06/24 12:56:41;;;;;;;0.1;0.1;;;;;;;24.02;61.98828;937.9645;;;;
2021/06/24 12:59:06;;;;;;;0;0;;;;;;;23.61;62.81152;937.9855;;;;
2021/06/24 13:01:31;;;;;;;0.1;0.1;;;;;;;23.39;64.38184;938.0245;;;;
2021/06/24 13:03:56;;;;;;;1.3;0.4;;;;;;;23.03;65.45703;938.1117;;;;
2021/06/24 13:06:22;;;;;;;0.1;0.1;;;;;;;22.79;65.87891;938.0923;;;;
2021/06/24 13:08:47;;;;;;;0;0;;;;;;;23.32;65.84082;938.0882;;;;
2021/06/24 13:11:12;;;;;;;0;0;;;;;;;23.36;64.9541;938.0583;;;;
2021/06/24 13:13:38;;;;;;;0.4;0.2;;;;;;;23.34;64.46777;938.1047;;;;
2021/06/24 13:16:04;;;;;;;0;0;;;;;;;23.24;63.30273;938.1378;;;;
2021/06/24 13:18:29;;;;;;;0.2;0.2;;;;;;;22.48;67.60547;938.0761;;;;
2021/06/24 13:20:59;;;;;;;0.3;0.3;;;;;;;22.14;67.75293;938.0263;;;;
2021/06/24 13:23:24;;;;;;;0.5;0.5;;;;;;;21.91;68.9834;937.9641;;;;
2021/06/24 13:25:50;;;;;;;0.6;0.4;;;;;;;21.55;69.66504;937.8931;;;;
2021/06/24 13:28:14;;;;;;;0.4;0.1;;;;;;;21.46;70.8916;937.901;;;;
2021/06/24 13:30:46;;;;;;;0.2;0.1;;;;;;;21.42;70.10059;937.9601;;;;
2021/06/24 13:33:14;;;;;;;0.1;0.1;;;;;;;21.23;71.26563;937.9684;;;;
2021/06/24 13:35:39;;;;;;;0.2;0.2;;;;;;;21.02;70.6123;937.9875;;;;
2021/06/24 13:38:04;;;;;;;0.1;0.1;;;;;;;20.95;72.06152;938.1063;;;;
2021/06/24 13:40:34;;;;;;;0.1;0.1;;;;;;;21.21;71.51855;938.2297;;;;
2021/06/24 13:43:05;;;;;;;0.2;0.2;;;;;;;21.57;69.05859;938.2611;;;;
2021/06/24 13:45:39;;;;;;;0.2;0.2;;;;;;;21.48;69.57324;938.2152;;;;
2021/06/24 13:48:07;;;;;;;0.3;0.3;;;;;;;21.38;70.51758;938.1486;;;;
2021/06/24 13:50:43;;;;;;;0;0;;;;;;;21.37;70.58594;938.0637;;;;
2021/06/24 13:53:09;;;;;;;0.1;0.1;;;;;;;21.52;71.00684;938.0389;;;;
2021/06/24 13:55:41;;;;;;;0;0;;;;;;;21.67;70.66699;937.9703;;;;
2021/06/24 13:58:19;;;;;;;0.1;0.1;;;;;;;21.7;70.23828;938.009;;;;
2021/06/24 14:00:40;;;;;;;0;0;;;;;;;21.86;70.16016;937.9615;;;;
2021/06/24 14:03:07;;;;;;;0.2;0.2;;;;;;;22.07;69.94629;937.9063;;;;
2021/06/24 14:05:36;;;;;;;0.2;0.2;;;;;;;22.32;68.67188;937.908;;;;
2021/06/24 14:08:03;;;;;;;0;0;;;;;;;22.46;67.95508;937.8552;;;;
2021/06/24 14:10:29;;;;;;;0;0;;;;;;;22.59;67.11719;937.8416;;;;
2021/06/24 14:13:01;;;;;;;0.3;0.2;;;;;;;22.64;66.77148;937.884;;;;
2021/06/24 14:15:32;;;;;;;0;0;;;;;;;22.49;67.86523;937.8681;;;;
2021/06/24 14:18:02;;;;;;;0.1;0.1;;;;;;;21.98;69.98926;937.8691;;;;
2021/06/24 14:20:31;;;;;;;0;0;;;;;;;22.05;69.00488;937.8656;;;;
2021/06/24 14:23:01;;;;;;;0.7;0.4;;;;;;;22.2;68.29004;937.9495;;;;
2021/06/24 14:25:27;;;;;;;0.3;0.3;;;;;;;21.88;69.24902;937.9788;;;;
2021/06/24 14:27:51;;;;;;;0.1;0.1;;;;;;;21.71;69.69043;937.9;;;;
2021/06/24 14:30:21;;;;;;;0.2;0.2;;;;;;;21.96;68.75781;937.9686;;;;
2021/06/24 14:32:51;;;;;;;0.4;0.4;;;;;;;22.05;69.27441;937.9247;;;;
2021/06/24 14:35:21;;;;;;;0;0;;;;;;;22.03;68.83789;937.823;;;;
2021/06/24 14:37:46;;;;;;;0.1;0.1;;;;;;;22.14;68.10547;937.9036;;;;
2021/06/24 14:40:14;;;;;;;0.7;0.2;;;;;;;21.92;70.36816;938.0276;;;;
2021/06/24 14:42:39;;;;;;;0;0;;;;;;;21.9;69.87305;938.0884;;;;
2021/06/24 14:45:14;;;;;;;0.1;0.1;;;;;;;21.91;67.95117;938.2455;;;;
2021/06/24 14:47:40;;;;;;;0.1;0.1;;;;;;;21.75;68.59473;938.2512;;;;
2021/06/24 14:50:05;;;;;;;0.1;0.1;;;;;;;21.67;69.29688;938.1082;;;;
2021/06/24 14:52:30;;;;;;;0.1;0.1;;;;;;;21.7;69.65234;937.975;;;;
2021/06/24 14:54:57;;;;;;;0.1;0.1;;;;;;;21.23;72.75098;938.1158;;;;
2021/06/24 14:57:22;;;;;;;0;0;;;;;;;20.89;76.71777;938.1566;;;;
2021/06/24 14:59:50;;;;;;;0.1;0.1;;;;;;;20.59;77.6582;938.0056;;;;
2021/06/24 15:02:14;;;;;;;0.9;0.4;;;;;;;20.54;79.93945;937.8954;;;;
2021/06/24 15:04:41;;;;;;;0;0;;;;;;;20.33;79.99414;937.8961;;;;
2021/06/24 15:07:06;;;;;;;0.5;0.5;;;;;;;20.48;80.29004;937.9627;;;;
2021/06/24 15:09:32;;;;;;;0.4;0.4;;;;;;;20.49;79.97656;937.9804;;;;
2021/06/24 15:11:57;;;;;;;0.5;0.3;;;;;;;20.64;79.71191;937.8725;;;;
2021/06/24 15:14:23;;;;;;;0.5;0.5;;;;;;;20.72;78.2998;937.9114;;;;
2021/06/24 15:16:52;;;;;;;1.2;0.2;;;;;;;20.8;77.98633;937.9558;;;;
2021/06/24 15:19:19;;;;;;;3.1;0.4;;;;;;;20.82;76.79785;937.9303;;;;
2021/06/24 15:21:44;;;;;;;0.1;0.1;;;;;;;20.97;76.04102;937.972;;;;
2021/06/24 15:24:09;;;;;;;0;0;;;;;;;21.01;76.62988;938.09;;;;
2021/06/24 15:26:41;;;;;;;0;0;;;;;;;20.41;78.12793;938.1392;;;;
2021/06/24 15:41:30;;;;;;;7;4.8;;;;;;;22.14;81.7998;938.0885;;;;
2021/06/24 15:44:00;;;;;;;4.4;2.6;;;;;;;21.99;77.78613;938.2969;;;;
2021/06/24 15:46:25;;;;;;;3.4;2.6;;;;;;;21.04;77.0459;938.3605;;;;
2021/06/24 15:48:54;;;;;;;3.7;2.5;;;;;;;20.28;81.63184;938.2413;;;;
2021/06/24 15:51:19;;;;;;;3;2.3;;;;;;;20.29;83.06934;938.1843;;;;
2021/06/24 15:53:49;;;;;;;4.3;2.5;;;;;;;20.22;83.36914;938.1448;;;;
2021/06/24 15:56:20;;;;;;;4;2.6;;;;;;;19.69;85.11328;938.0356;;;;
2021/06/24 15:58:50;;;;;;;2.4;2;;;;;;;19.33;87.60645;937.8897;;;;
2021/06/24 16:01:24;;;;;;;4.6;2.5;;;;;;;19.46;88.17871;937.8108;;;;
2021/06/24 16:03:52;;;;;;;3.6;2.3;;;;;;;19.72;86.0293;937.9047;;;;
2021/06/24 16:06:17;;;;;;;3.8;2.3;;;;;;;19.35;86.38672;938.0289;;;;